createdAt,value
2022-12-31T00:01:20.673Z,12.30
2022-12-31T00:04:05.909Z,12.22
2022-12-31T00:06:50.585Z,12.14
2022-12-31T00:09:35.611Z,12.08
2022-12-31T00:12:20.893Z,11.97
2022-12-31T00:15:06.490Z,11.95
2022-12-31T00:17:51.647Z,11.89
2022-12-31T00:20:41.267Z,11.85
2022-12-31T00:23:26.397Z,11.83
2022-12-31T00:26:17.804Z,11.82
2022-12-31T00:29:04.567Z,11.78
2022-12-31T00:31:49.874Z,11.83
2022-12-31T00:34:34.876Z,11.85
2022-12-31T00:37:19.868Z,11.88
2022-12-31T00:40:05.820Z,11.97
2022-12-31T00:42:50.826Z,11.98
2022-12-31T00:45:36.218Z,11.98
2022-12-31T00:48:21.833Z,12.00
2022-12-31T00:51:10.744Z,12.00
2022-12-31T00:53:57.199Z,11.97
2022-12-31T00:56:42.224Z,11.97
2022-12-31T00:59:27.115Z,11.99
2022-12-31T01:02:12.791Z,12.03
2022-12-31T01:04:57.954Z,12.04
2022-12-31T01:07:42.941Z,12.10
2022-12-31T01:10:29.045Z,12.09
2022-12-31T01:13:14.225Z,12.10
2022-12-31T01:16:06.844Z,12.07
2022-12-31T01:18:52.529Z,12.07
2022-12-31T01:21:39.556Z,12.04
2022-12-31T01:24:24.898Z,12.00
2022-12-31T01:27:10.029Z,12.00
2022-12-31T01:29:55.222Z,11.96
2022-12-31T01:32:39.959Z,11.95
2022-12-31T01:35:25.564Z,11.91
2022-12-31T01:38:10.774Z,11.88
2022-12-31T01:40:55.839Z,11.87
2022-12-31T01:43:56.308Z,11.85
2022-12-31T01:46:49.279Z,11.85
2022-12-31T01:49:40.682Z,11.83
2022-12-31T01:52:32.492Z,11.80
2022-12-31T01:55:38.435Z,11.81
2022-12-31T01:58:38.246Z,11.75
2022-12-31T02:01:30.860Z,11.73
2022-12-31T02:04:16.491Z,11.66
2022-12-31T02:07:07.066Z,11.68
2022-12-31T02:09:53.599Z,11.67
2022-12-31T02:12:39.882Z,11.66
2022-12-31T02:15:47.150Z,11.63
2022-12-31T02:18:49.508Z,11.64
2022-12-31T02:22:10.241Z,11.63
2022-12-31T02:25:14.040Z,11.61
2022-12-31T02:28:09.765Z,11.64
2022-12-31T02:31:05.892Z,11.59
2022-12-31T02:33:57.839Z,11.62
2022-12-31T02:36:47.275Z,11.57
2022-12-31T02:39:33.980Z,11.57
2022-12-31T02:42:19.361Z,11.59
2022-12-31T02:45:04.910Z,11.62
2022-12-31T02:47:55.813Z,11.61
2022-12-31T02:50:47.359Z,11.67
2022-12-31T02:54:02.404Z,11.69
2022-12-31T02:57:04.570Z,11.72
2022-12-31T03:00:01.659Z,11.76
2022-12-31T03:02:49.001Z,11.79
2022-12-31T03:05:40.086Z,11.88
2022-12-31T03:08:26.576Z,11.95
2022-12-31T03:11:11.790Z,12.04
2022-12-31T03:13:57.155Z,12.22
2022-12-31T03:16:42.106Z,12.27
2022-12-31T03:19:27.453Z,12.38
2022-12-31T03:22:13.331Z,12.46
2022-12-31T03:25:02.033Z,12.59
2022-12-31T03:27:47.593Z,12.68
2022-12-31T03:30:34.350Z,12.85
2022-12-31T03:33:20.491Z,12.91
2022-12-31T03:36:12.600Z,13.19
2022-12-31T03:38:57.650Z,13.35
2022-12-31T03:41:43.000Z,13.38
2022-12-31T03:44:28.304Z,13.51
2022-12-31T03:47:13.750Z,13.63
2022-12-31T03:49:59.139Z,13.75
2022-12-31T03:52:44.926Z,13.80
2022-12-31T03:55:29.915Z,14.02
2022-12-31T03:58:15.196Z,14.25
2022-12-31T04:01:00.762Z,14.08
2022-12-31T04:03:45.947Z,14.19
2022-12-31T04:06:31.388Z,14.27
2022-12-31T04:09:16.683Z,14.20
2022-12-31T04:12:02.155Z,14.08
2022-12-31T04:14:47.265Z,13.99
2022-12-31T04:17:32.919Z,13.73
2022-12-31T04:20:18.503Z,13.47
2022-12-31T04:23:03.493Z,13.29
2022-12-31T04:25:48.932Z,13.24
2022-12-31T04:28:34.157Z,13.06
2022-12-31T04:31:19.641Z,12.68
2022-12-31T04:34:05.026Z,12.49
2022-12-31T04:36:49.867Z,12.29
2022-12-31T04:39:34.834Z,12.19
2022-12-31T04:42:20.245Z,12.15
2022-12-31T04:45:06.617Z,12.08
2022-12-31T04:47:51.436Z,11.94
2022-12-31T04:50:36.788Z,11.85
2022-12-31T04:53:22.317Z,11.81
2022-12-31T04:56:09.004Z,11.80
2022-12-31T04:58:54.484Z,11.79
2022-12-31T05:01:39.997Z,11.72
2022-12-31T05:04:25.326Z,11.70
2022-12-31T05:07:10.498Z,11.69
2022-12-31T05:09:55.324Z,11.72
2022-12-31T05:12:40.163Z,11.72
2022-12-31T05:15:25.451Z,11.77
2022-12-31T05:18:10.449Z,11.75
2022-12-31T05:20:55.476Z,11.76
2022-12-31T05:23:40.701Z,11.81
2022-12-31T05:26:25.947Z,11.87
2022-12-31T05:29:11.207Z,11.96
2022-12-31T05:31:56.255Z,12.09
2022-12-31T05:34:41.435Z,12.19
2022-12-31T05:37:28.757Z,12.51
2022-12-31T05:40:14.091Z,12.53
2022-12-31T05:42:59.096Z,12.53
2022-12-31T05:45:44.044Z,12.64
2022-12-31T05:48:29.635Z,12.74
2022-12-31T05:51:14.506Z,12.76
2022-12-31T05:53:59.400Z,12.79
2022-12-31T05:56:44.322Z,12.87
2022-12-31T05:59:30.346Z,12.89
2022-12-31T06:02:15.703Z,13.02
2022-12-31T06:05:01.313Z,13.12
2022-12-31T06:07:46.625Z,13.31
2022-12-31T06:10:31.522Z,13.39
2022-12-31T06:13:16.883Z,13.47
2022-12-31T06:16:06.975Z,13.67
2022-12-31T06:18:52.422Z,13.79
2022-12-31T06:21:37.659Z,13.92
2022-12-31T06:24:23.938Z,14.08
2022-12-31T06:27:09.348Z,14.12
2022-12-31T06:29:54.498Z,14.28
2022-12-31T06:32:39.942Z,14.40
2022-12-31T06:35:25.268Z,14.68
2022-12-31T06:38:10.071Z,14.90
2022-12-31T06:40:55.323Z,15.07
2022-12-31T06:43:41.336Z,15.06
2022-12-31T06:46:26.787Z,15.48
2022-12-31T06:49:12.351Z,15.59
2022-12-31T06:51:57.611Z,15.57
2022-12-31T06:54:43.000Z,15.96
2022-12-31T06:57:28.384Z,15.52
2022-12-31T07:00:14.390Z,15.92
2022-12-31T07:03:15.510Z,15.79
2022-12-31T07:06:16.239Z,15.77
2022-12-31T07:09:13.446Z,15.66
2022-12-31T07:12:28.398Z,15.65
2022-12-31T07:15:13.279Z,15.59
2022-12-31T07:18:20.249Z,15.49
2022-12-31T07:21:12.175Z,15.35
2022-12-31T07:23:57.723Z,15.16
2022-12-31T07:27:18.595Z,14.98
2022-12-31T07:30:18.063Z,14.99
2022-12-31T07:33:19.539Z,15.07
2022-12-31T07:36:26.704Z,15.41
2022-12-31T07:39:32.530Z,15.45
2022-12-31T07:42:29.622Z,15.68
2022-12-31T07:45:24.394Z,15.90
2022-12-31T07:48:22.476Z,15.84
2022-12-31T07:51:10.275Z,15.99
2022-12-31T07:53:55.343Z,16.12
2022-12-31T07:56:40.659Z,15.96
2022-12-31T07:59:48.800Z,16.20
2022-12-31T08:02:56.877Z,16.15
2022-12-31T08:05:53.993Z,16.18
2022-12-31T08:09:00.612Z,16.26
2022-12-31T08:11:51.566Z,16.17
2022-12-31T08:14:45.355Z,16.09
2022-12-31T08:17:30.560Z,16.34
2022-12-31T08:20:16.857Z,16.32
2022-12-31T08:23:24.513Z,16.44
2022-12-31T08:26:34.943Z,16.23
2022-12-31T08:29:43.705Z,16.39
2022-12-31T08:32:45.413Z,16.39
2022-12-31T08:35:54.762Z,16.59
2022-12-31T08:38:46.135Z,16.49
2022-12-31T08:41:42.884Z,16.45
2022-12-31T08:44:44.208Z,16.44
2022-12-31T08:47:44.616Z,16.55
2022-12-31T08:50:30.553Z,16.59
2022-12-31T08:53:16.180Z,16.52
2022-12-31T08:56:17.287Z,16.81
2022-12-31T08:59:14.713Z,16.59
2022-12-31T09:02:18.761Z,16.53
2022-12-31T09:05:13.188Z,16.73
2022-12-31T09:08:26.479Z,16.66
2022-12-31T09:11:20.819Z,16.64
2022-12-31T09:14:48.115Z,16.76
2022-12-31T09:17:38.896Z,16.59
2022-12-31T09:20:26.107Z,16.77
2022-12-31T09:23:12.620Z,16.79
2022-12-31T09:26:13.104Z,16.83
2022-12-31T09:29:20.043Z,16.89
2022-12-31T09:32:19.890Z,16.88
2022-12-31T09:35:15.202Z,16.95
2022-12-31T09:38:38.759Z,16.92
2022-12-31T09:41:33.452Z,16.88
2022-12-31T09:44:24.844Z,16.95
2022-12-31T09:47:31.503Z,16.93
2022-12-31T09:50:42.018Z,17.08
2022-12-31T09:53:41.199Z,17.11
2022-12-31T09:56:36.244Z,17.15
2022-12-31T09:59:38.188Z,17.19
2022-12-31T10:02:29.343Z,17.03
2022-12-31T10:06:05.857Z,17.11
2022-12-31T10:09:24.196Z,17.13
2022-12-31T10:12:33.174Z,17.05
2022-12-31T10:15:36.875Z,16.97
2022-12-31T10:18:42.882Z,17.00
2022-12-31T10:21:43.506Z,16.89
2022-12-31T10:25:01.113Z,16.80
2022-12-31T10:28:17.162Z,16.82
2022-12-31T10:31:08.266Z,16.71
2022-12-31T10:33:53.308Z,16.72
2022-12-31T10:37:03.457Z,16.76
2022-12-31T10:40:29.310Z,16.71
2022-12-31T10:43:52.405Z,16.73
2022-12-31T10:47:09.084Z,16.77
2022-12-31T10:50:32.005Z,16.90
2022-12-31T10:54:14.628Z,16.85
2022-12-31T10:57:39.539Z,16.59
2022-12-31T11:00:30.718Z,16.58
2022-12-31T11:03:43.920Z,16.64
2022-12-31T11:06:29.359Z,16.61
2022-12-31T11:09:20.787Z,16.66
2022-12-31T11:12:28.601Z,16.66
2022-12-31T11:15:22.794Z,16.67
2022-12-31T11:18:29.698Z,16.76
2022-12-31T11:21:41.491Z,16.83
2022-12-31T11:24:56.420Z,16.87
2022-12-31T11:28:03.109Z,16.98
2022-12-31T11:31:06.492Z,16.91
2022-12-31T11:33:54.818Z,17.02
2022-12-31T11:36:43.264Z,16.99
2022-12-31T11:39:49.035Z,16.95
2022-12-31T11:43:00.978Z,17.36
2022-12-31T11:45:50.558Z,17.38
2022-12-31T11:48:48.265Z,17.50
2022-12-31T11:51:58.502Z,17.36
2022-12-31T11:54:55.944Z,17.37
2022-12-31T11:57:48.388Z,17.28
2022-12-31T12:00:34.099Z,17.33
2022-12-31T12:03:19.412Z,17.24
2022-12-31T12:06:04.922Z,17.26
2022-12-31T12:08:50.953Z,17.15
2022-12-31T12:11:39.253Z,17.21
2022-12-31T12:14:35.768Z,17.18
2022-12-31T12:17:30.187Z,17.15
2022-12-31T12:20:30.134Z,17.18
2022-12-31T12:23:22.618Z,17.22
2022-12-31T12:26:26.299Z,17.27
2022-12-31T12:29:14.397Z,17.18
2022-12-31T12:32:17.472Z,17.11
2022-12-31T12:35:14.269Z,17.21
2022-12-31T12:38:03.893Z,17.20
2022-12-31T12:41:01.500Z,17.24
2022-12-31T12:43:47.231Z,17.24
2022-12-31T12:46:47.771Z,17.31
2022-12-31T12:49:43.932Z,17.27
2022-12-31T12:52:53.869Z,17.19
2022-12-31T12:56:08.851Z,17.10
2022-12-31T12:59:12.520Z,17.21
2022-12-31T13:02:16.589Z,17.22
2022-12-31T13:05:41.229Z,17.28
2022-12-31T13:08:35.764Z,17.22
2022-12-31T13:11:36.267Z,17.18
2022-12-31T13:14:36.951Z,17.21
2022-12-31T13:17:47.034Z,17.11
2022-12-31T13:20:40.388Z,17.05
2022-12-31T13:23:44.331Z,17.12
2022-12-31T13:27:11.907Z,16.93
2022-12-31T13:30:01.525Z,16.96
2022-12-31T13:33:01.946Z,16.90
2022-12-31T13:35:56.067Z,16.69
2022-12-31T13:38:57.946Z,16.61
2022-12-31T13:41:55.183Z,16.71
2022-12-31T13:44:49.413Z,16.53
2022-12-31T13:47:41.991Z,16.46
2022-12-31T13:50:33.576Z,16.28
2022-12-31T13:53:25.971Z,16.16
2022-12-31T13:56:19.774Z,16.09
2022-12-31T13:59:07.131Z,16.13
2022-12-31T14:02:15.378Z,16.18
2022-12-31T14:05:18.760Z,16.08
2022-12-31T14:08:06.156Z,16.02
2022-12-31T14:11:05.004Z,16.04
2022-12-31T14:14:11.818Z,15.98
2022-12-31T14:17:09.159Z,15.91
2022-12-31T14:20:06.282Z,15.85
2022-12-31T14:23:09.740Z,15.85
2022-12-31T14:26:02.985Z,15.69
2022-12-31T14:28:56.661Z,15.60
2022-12-31T14:31:44.880Z,15.51
2022-12-31T14:34:33.314Z,15.27
2022-12-31T14:38:05.387Z,15.24
2022-12-31T14:41:09.822Z,15.27
2022-12-31T14:44:22.732Z,15.25
2022-12-31T14:47:16.765Z,15.35
2022-12-31T14:50:09.744Z,15.25
2022-12-31T14:52:56.331Z,15.13
2022-12-31T14:55:41.564Z,15.15
2022-12-31T14:58:33.306Z,15.13
2022-12-31T15:01:18.147Z,15.14
2022-12-31T15:04:14.556Z,15.15
2022-12-31T15:07:33.434Z,15.13
2022-12-31T15:10:36.527Z,15.17
2022-12-31T15:14:03.335Z,15.38
2022-12-31T15:16:48.182Z,15.32
2022-12-31T15:19:51.718Z,15.55
2022-12-31T15:22:43.537Z,15.49
2022-12-31T15:25:41.396Z,15.34
2022-12-31T15:28:32.908Z,15.45
2022-12-31T15:31:20.731Z,15.35
2022-12-31T15:34:23.481Z,15.35
2022-12-31T15:37:34.879Z,15.43
2022-12-31T15:40:22.017Z,15.32
2022-12-31T15:43:45.205Z,15.30
2022-12-31T15:46:37.644Z,15.29
2022-12-31T15:49:24.415Z,15.32
2022-12-31T15:52:25.011Z,15.29
2022-12-31T15:55:45.896Z,15.39
2022-12-31T15:58:34.390Z,15.38
2022-12-31T16:01:22.829Z,15.44
2022-12-31T16:04:21.190Z,15.48
2022-12-31T16:07:06.435Z,15.37
2022-12-31T16:09:54.747Z,15.30
2022-12-31T16:12:44.562Z,15.33
2022-12-31T16:15:32.757Z,15.41
2022-12-31T16:18:22.844Z,15.23
2022-12-31T16:21:26.819Z,15.41
2022-12-31T16:24:32.635Z,15.32
2022-12-31T16:27:17.806Z,15.30
2022-12-31T16:30:18.543Z,15.18
2022-12-31T16:33:06.360Z,15.12
2022-12-31T16:35:59.727Z,15.12
2022-12-31T16:38:45.039Z,15.09
2022-12-31T16:41:42.187Z,15.00
2022-12-31T16:44:29.462Z,15.09
2022-12-31T16:47:36.016Z,15.14
2022-12-31T16:50:24.143Z,15.04
2022-12-31T16:53:12.919Z,14.95
2022-12-31T16:56:06.731Z,14.94
2022-12-31T16:58:59.802Z,14.94
2022-12-31T17:01:46.219Z,14.98
2022-12-31T17:04:31.570Z,14.99
2022-12-31T17:07:32.258Z,14.91
2022-12-31T17:10:26.892Z,14.88
2022-12-31T17:13:34.727Z,14.89
2022-12-31T17:16:20.149Z,14.94
2022-12-31T17:19:05.503Z,14.91
2022-12-31T17:21:50.955Z,14.94
2022-12-31T17:24:38.090Z,15.02
2022-12-31T17:27:23.390Z,15.02
2022-12-31T17:30:30.313Z,14.96
2022-12-31T17:33:21.761Z,15.10
2022-12-31T17:36:20.114Z,15.16
2022-12-31T17:39:22.842Z,15.45
2022-12-31T17:42:09.075Z,15.30
2022-12-31T17:44:56.802Z,15.33
2022-12-31T17:47:47.048Z,15.38
2022-12-31T17:50:32.393Z,15.51
2022-12-31T17:53:18.719Z,15.44
2022-12-31T17:56:07.381Z,15.42
2022-12-31T17:58:53.819Z,15.53
2022-12-31T18:01:39.202Z,15.41
2022-12-31T18:04:24.459Z,15.52
2022-12-31T18:07:09.316Z,15.49
2022-12-31T18:09:54.280Z,15.57
2022-12-31T18:12:40.030Z,15.66
2022-12-31T18:15:25.122Z,15.78
2022-12-31T18:18:25.536Z,15.61
2022-12-31T18:21:22.228Z,15.69
2022-12-31T18:24:13.360Z,15.81
2022-12-31T18:26:58.365Z,15.54
2022-12-31T18:29:43.780Z,15.66
2022-12-31T18:32:30.907Z,15.55
2022-12-31T18:36:07.786Z,15.44
2022-12-31T18:38:24.506Z,15.45
2022-12-31T18:41:27.301Z,15.55
2022-12-31T18:44:14.873Z,15.69
2022-12-31T18:47:00.111Z,15.60
2022-12-31T18:49:45.745Z,15.56
2022-12-31T18:52:30.802Z,15.67
2022-12-31T18:55:24.331Z,15.52
2022-12-31T18:58:10.921Z,15.54
2022-12-31T19:00:56.087Z,15.62
2022-12-31T19:03:41.527Z,15.57
2022-12-31T19:06:27.802Z,15.48
2022-12-31T19:09:30.991Z,15.30
2022-12-31T19:12:18.193Z,15.40
2022-12-31T19:15:27.311Z,15.36
2022-12-31T19:18:12.811Z,15.38
2022-12-31T19:20:58.071Z,15.49
2022-12-31T19:23:44.303Z,15.31
2022-12-31T19:26:29.361Z,15.28
2022-12-31T19:29:26.028Z,15.42
2022-12-31T19:32:11.360Z,15.43
2022-12-31T19:34:56.548Z,15.47
2022-12-31T19:37:43.053Z,15.51
2022-12-31T19:40:30.376Z,15.49
2022-12-31T19:43:18.239Z,15.55
2022-12-31T19:46:03.852Z,15.50
2022-12-31T19:48:48.970Z,15.57
2022-12-31T19:51:34.001Z,15.67
2022-12-31T19:54:19.509Z,15.65
2022-12-31T19:57:04.911Z,15.62
2022-12-31T19:59:49.917Z,15.63
2022-12-31T20:02:35.324Z,15.58
2022-12-31T20:05:20.280Z,15.58
2022-12-31T20:08:05.754Z,15.57
2022-12-31T20:10:50.855Z,15.54
2022-12-31T20:13:36.754Z,15.49
2022-12-31T20:16:24.050Z,15.45
2022-12-31T20:19:10.028Z,15.42
2022-12-31T20:21:55.766Z,15.28
2022-12-31T20:24:40.871Z,15.35
2022-12-31T20:27:25.775Z,15.40
2022-12-31T20:30:11.042Z,15.44
2022-12-31T20:32:56.259Z,15.36
2022-12-31T20:35:41.679Z,15.19
2022-12-31T20:38:27.776Z,15.31
2022-12-31T20:41:16.486Z,15.42
2022-12-31T20:44:01.898Z,15.37
2022-12-31T20:46:47.076Z,15.44
2022-12-31T20:50:09.297Z,15.79
2022-12-31T20:52:37.461Z,15.68
2022-12-31T20:55:22.675Z,15.77
2022-12-31T20:58:08.090Z,15.81
2022-12-31T21:00:53.513Z,15.81
2022-12-31T21:06:46.126Z,15.88
2022-12-31T21:09:31.876Z,15.82
2022-12-31T21:12:17.233Z,15.91
2022-12-31T21:15:02.270Z,15.90
2022-12-31T21:17:47.541Z,15.97
2022-12-31T21:20:32.421Z,15.86
2022-12-31T21:23:19.373Z,16.03
2022-12-31T21:26:05.361Z,15.90
2022-12-31T21:28:50.517Z,16.06
2022-12-31T21:31:35.870Z,15.92
2022-12-31T21:34:21.438Z,16.01
2022-12-31T21:37:06.356Z,15.92
2022-12-31T21:39:51.869Z,16.08
2022-12-31T21:42:37.189Z,15.86
2022-12-31T21:45:22.676Z,15.75
2022-12-31T21:48:11.235Z,15.93
2022-12-31T21:51:07.216Z,15.80
2022-12-31T21:53:52.592Z,15.75
2022-12-31T21:56:37.840Z,15.78
2022-12-31T21:59:22.742Z,15.85
2022-12-31T22:02:10.743Z,15.83
2022-12-31T22:05:05.860Z,15.93
2022-12-31T22:07:55.948Z,15.63
2022-12-31T22:10:50.312Z,15.64
2022-12-31T22:13:38.183Z,15.69
2022-12-31T22:16:23.557Z,15.81
2022-12-31T22:19:08.968Z,15.79
2022-12-31T22:21:54.226Z,15.72
2022-12-31T22:24:39.555Z,15.75
2022-12-31T22:27:29.323Z,15.83
2022-12-31T22:30:14.908Z,15.62
2022-12-31T22:33:00.905Z,15.69
2022-12-31T22:36:04.315Z,15.54
2022-12-31T22:38:50.921Z,15.71
2022-12-31T22:41:36.375Z,15.71
2022-12-31T22:44:21.694Z,15.56
2022-12-31T22:47:07.071Z,15.86
2022-12-31T22:49:52.377Z,15.83
2022-12-31T22:52:37.725Z,15.73
2022-12-31T22:55:22.556Z,15.86
2022-12-31T22:58:07.998Z,15.83
2022-12-31T23:00:53.955Z,16.03
2022-12-31T23:03:41.223Z,15.82
2022-12-31T23:06:26.471Z,15.82
2022-12-31T23:09:13.377Z,15.87
2022-12-31T23:11:58.721Z,15.87
2022-12-31T23:14:43.981Z,15.68
2022-12-31T23:17:32.031Z,15.76
2022-12-31T23:20:20.443Z,15.81
2022-12-31T23:23:06.320Z,15.86
2022-12-31T23:25:52.419Z,15.83
2022-12-31T23:28:37.465Z,15.82
2022-12-31T23:31:22.362Z,15.83
2022-12-31T23:34:08.551Z,15.80
2022-12-31T23:36:54.373Z,15.88
2022-12-31T23:39:39.874Z,16.07
2022-12-31T23:42:24.861Z,16.03
2022-12-31T23:45:10.438Z,16.08
2022-12-31T23:47:55.410Z,15.89
2022-12-31T23:50:40.882Z,15.92
2022-12-31T23:53:26.040Z,15.90
2022-12-31T23:56:23.021Z,16.04
2022-12-31T23:59:10.791Z,16.12
